Time;durP1;ratioP1;P1;durP2;ratioP2;P2;SDS_P1;SDS_P2;PMS_P1;PMS_P2;Temp;Humidity;BMP_temperature;BMP_pressure;BME280_temperature;BME280_humidity;BME280_pressure;Samples;Min_cycle;Max_cycle;Signal;HPM_P1;HPM_P2
2024/01/23 00:01:09;;;;;;;;;;;;;;;5.42;100.00;96163.56;10442684;28;2994;-64
2024/01/23 00:06:12;;;;;;;;;;;;;;;5.51;100.00;96165.88;10441531;28;2884;-64
2024/01/23 00:11:15;;;;;;;;;;;;;;;5.51;100.00;96163.19;10434121;28;2970;-64
2024/01/23 00:16:17;;;;;;;;;;;;;;;5.57;100.00;96170.28;10433177;28;3334;-64
2024/01/23 00:21:20;;;;;;;;;;;;;;;5.52;100.00;96162.97;10433636;28;2992;-65
2024/01/23 00:26:22;;;;;;;;;;;;;;;5.63;100.00;96180.00;10434570;28;2842;-65
2024/01/23 00:31:26;;;;;;;;;;;;;;;5.68;100.00;96178.28;10435690;28;3042;-65
2024/01/23 00:36:29;;;;;;;;;;;;;;;5.64;100.00;96177.09;10431837;28;2979;-65
2024/01/23 00:41:34;;;;;;;;;;;;;;;5.68;100.00;96177.47;10437665;28;2790;-65
2024/01/23 00:46:36;;;;;;;;;;;;;;;5.69;100.00;96179.09;10436266;28;3113;-65
2024/01/23 00:51:39;;;;;;;;;;;;;;;5.77;100.00;96172.56;10434284;28;2982;-64
2024/01/23 00:56:42;;;;;;;;;;;;;;;5.78;100.00;96159.00;10420513;28;3062;-64
2024/01/23 01:01:45;;;;;;;;;;;;;;;5.65;100.00;96156.56;10434825;28;2798;-64
2024/01/23 01:06:47;;;;;;;;;;;;;;;5.75;100.00;96172.81;10414259;28;3187;-66
2024/01/23 01:11:50;;;;;;;;;;;;;;;5.72;100.00;96162.59;10424593;28;3103;-66
2024/01/23 01:16:52;;;;;;;;;;;;;;;5.73;100.00;96190.91;10434506;28;2969;-63
2024/01/23 01:21:55;;;;;;;;;;;;;;;5.62;100.00;96229.88;10433045;28;2841;-64
2024/01/23 01:26:57;;;;;;;;;;;;;;;5.26;100.00;96222.88;10441946;28;3011;-65
2024/01/23 01:32:00;;;;;;;;;;;;;;;5.14;100.00;96219.34;10440218;28;2997;-66
2024/01/23 01:37:03;;;;;;;;;;;;;;;4.94;100.00;96209.00;10436644;28;3094;-65
2024/01/23 01:42:05;;;;;;;;;;;;;;;4.87;100.00;96210.94;10438310;28;2992;-65
2024/01/23 01:47:07;;;;;;;;;;;;;;;4.73;100.00;96207.66;10421414;28;2991;-65
2024/01/23 01:52:10;;;;;;;;;;;;;;;4.68;100.00;96204.03;10440056;28;3022;-65
2024/01/23 01:57:13;;;;;;;;;;;;;;;4.64;100.00;96214.31;10432864;28;2948;-66
2024/01/23 02:02:15;;;;;;;;;;;;;;;4.52;100.00;96208.16;10438269;28;2902;-64
2024/01/23 02:07:18;;;;;;;;;;;;;;;4.40;100.00;96204.63;10445114;28;2818;-65
2024/01/23 02:12:20;;;;;;;;;;;;;;;4.40;100.00;96217.94;10441330;28;2933;-66
2024/01/23 02:17:23;;;;;;;;;;;;;;;4.48;100.00;96225.59;10435024;28;3016;-64
2024/01/23 02:22:25;;;;;;;;;;;;;;;4.41;100.00;96235.53;10438838;28;2958;-65
2024/01/23 02:27:28;;;;;;;;;;;;;;;4.46;100.00;96249.78;10439524;28;3072;-66
2024/01/23 02:32:30;;;;;;;;;;;;;;;4.45;100.00;96256.13;10434601;28;3040;-65
2024/01/23 02:37:33;;;;;;;;;;;;;;;4.51;100.00;96268.56;10432367;28;3329;-64
2024/01/23 02:42:35;;;;;;;;;;;;;;;4.48;100.00;96276.19;10439864;28;2953;-65
2024/01/23 02:47:38;;;;;;;;;;;;;;;4.53;100.00;96271.81;10433044;28;2956;-65
2024/01/23 02:52:40;;;;;;;;;;;;;;;4.51;100.00;96281.06;10433806;28;2962;-64
2024/01/23 02:57:43;;;;;;;;;;;;;;;4.42;100.00;96279.75;10437238;28;2938;-65
2024/01/23 03:02:45;;;;;;;;;;;;;;;4.52;100.00;96280.03;10419959;28;2980;-66
2024/01/23 03:07:50;;;;;;;;;;;;;;;4.42;100.00;96290.38;10438480;28;2967;-65
2024/01/23 03:12:53;;;;;;;;;;;;;;;4.52;100.00;96286.19;10435572;28;3080;-65
2024/01/23 03:17:55;;;;;;;;;;;;;;;4.52;100.00;96298.69;10435971;28;2961;-64
2024/01/23 03:22:58;;;;;;;;;;;;;;;4.63;100.00;96308.56;10434676;28;2966;-66
2024/01/23 03:28:00;;;;;;;;;;;;;;;4.65;100.00;96301.19;10436678;28;2941;-65
2024/01/23 03:33:03;;;;;;;;;;;;;;;4.56;100.00;96303.31;10435239;28;3133;-65
2024/01/23 03:38:06;;;;;;;;;;;;;;;4.48;100.00;96311.59;10428437;28;3236;-64
2024/01/23 03:43:09;;;;;;;;;;;;;;;4.61;100.00;96321.28;10432977;28;3097;-65
2024/01/23 03:48:12;;;;;;;;;;;;;;;4.64;100.00;96350.13;10417381;28;3326;-65
2024/01/23 03:53:15;;;;;;;;;;;;;;;4.59;100.00;96334.03;10440252;28;3240;-65
2024/01/23 03:58:18;;;;;;;;;;;;;;;4.50;100.00;96325.50;10437556;28;2853;-64
2024/01/23 04:03:21;;;;;;;;;;;;;;;4.56;100.00;96327.28;10432199;28;3052;-67
2024/01/23 04:08:24;;;;;;;;;;;;;;;4.39;100.00;96333.41;10436056;28;3311;-65
2024/01/23 04:13:27;;;;;;;;;;;;;;;4.27;100.00;96325.34;10434220;28;3020;-66
2024/01/23 04:18:29;;;;;;;;;;;;;;;4.27;100.00;96331.50;10435985;28;2938;-69
2024/01/23 04:23:32;;;;;;;;;;;;;;;4.17;100.00;96317.88;10437300;28;3117;-64
2024/01/23 04:28:35;;;;;;;;;;;;;;;4.08;100.00;96332.50;10434555;28;2945;-65
2024/01/23 04:33:37;;;;;;;;;;;;;;;4.02;100.00;96333.38;10410454;28;2997;-65
2024/01/23 04:38:40;;;;;;;;;;;;;;;4.26;100.00;96337.84;10429771;28;3156;-65
2024/01/23 04:43:43;;;;;;;;;;;;;;;4.33;100.00;96354.56;10409469;28;3056;-63
2024/01/23 04:48:46;;;;;;;;;;;;;;;4.26;100.00;96350.31;10426921;28;3030;-67
2024/01/23 04:53:52;;;;;;;;;;;;;;;4.27;100.00;96363.44;10435602;28;2865;-65
2024/01/23 04:58:54;;;;;;;;;;;;;;;4.17;100.00;96378.25;10441227;28;2950;-64
2024/01/23 05:03:57;;;;;;;;;;;;;;;4.09;100.00;96368.72;10435239;28;3014;-64
2024/01/23 05:08:59;;;;;;;;;;;;;;;4.02;100.00;96382.06;10437701;28;2904;-65
2024/01/23 05:14:03;;;;;;;;;;;;;;;4.08;100.00;96391.03;10435806;28;2954;-64
2024/01/23 05:19:05;;;;;;;;;;;;;;;4.07;100.00;96402.69;10432154;28;3394;-64
2024/01/23 05:24:08;;;;;;;;;;;;;;;3.99;100.00;96421.56;10435379;28;3054;-65
2024/01/23 05:29:10;;;;;;;;;;;;;;;4.03;100.00;96430.75;10430809;28;2964;-66
2024/01/23 05:34:13;;;;;;;;;;;;;;;4.02;100.00;96437.13;10435273;28;2966;-65
2024/01/23 05:39:16;;;;;;;;;;;;;;;3.98;100.00;96454.53;10434468;28;2997;-65
2024/01/23 05:44:19;;;;;;;;;;;;;;;3.84;100.00;96464.44;10438087;28;2930;-64
2024/01/23 05:49:24;;;;;;;;;;;;;;;3.82;100.00;96487.78;10434985;28;3017;-65
2024/01/23 05:54:26;;;;;;;;;;;;;;;3.83;100.00;96497.41;10431724;28;2950;-65
2024/01/23 05:59:29;;;;;;;;;;;;;;;3.98;100.00;96523.69;10431047;28;3105;-64
2024/01/23 06:04:32;;;;;;;;;;;;;;;4.08;100.00;96542.69;10439936;28;3119;-67
2024/01/23 06:09:35;;;;;;;;;;;;;;;4.19;100.00;96544.63;10439979;28;2922;-64
2024/01/23 06:14:37;;;;;;;;;;;;;;;4.29;100.00;96558.31;10434031;28;3043;-64
2024/01/23 06:19:41;;;;;;;;;;;;;;;4.36;100.00;96552.94;10444435;28;3132;-63
2024/01/23 06:24:44;;;;;;;;;;;;;;;4.33;100.00;96572.81;10441993;28;2962;-64
2024/01/23 06:29:46;;;;;;;;;;;;;;;4.41;100.00;96565.59;10437115;28;3066;-62
2024/01/23 06:34:48;;;;;;;;;;;;;;;4.34;100.00;96587.75;10436310;28;2973;-62
2024/01/23 06:39:51;;;;;;;;;;;;;;;4.35;100.00;96620.50;10436086;28;3202;-66
2024/01/23 06:44:58;;;;;;;;;;;;;;;4.34;100.00;96630.34;10443138;28;3037;-64
2024/01/23 06:50:00;;;;;;;;;;;;;;;4.42;100.00;96623.13;10440800;28;2974;-66
2024/01/23 06:55:03;;;;;;;;;;;;;;;4.43;100.00;96617.59;10444057;28;2974;-71
2024/01/23 07:00:05;;;;;;;;;;;;;;;4.48;100.00;96640.91;10436051;28;3114;-69
2024/01/23 07:05:10;;;;;;;;;;;;;;;4.47;100.00;96649.94;10440864;28;2969;-73
2024/01/23 07:10:13;;;;;;;;;;;;;;;4.38;100.00;96661.84;10441889;28;2903;-74
2024/01/23 07:15:15;;;;;;;;;;;;;;;4.31;100.00;96657.38;10440967;28;2962;-67
2024/01/23 07:20:18;;;;;;;;;;;;;;;4.40;100.00;96671.28;10438430;28;2894;-64
2024/01/23 07:25:20;;;;;;;;;;;;;;;4.36;100.00;96680.69;10436737;28;2858;-65
2024/01/23 07:30:23;;;;;;;;;;;;;;;4.42;100.00;96689.69;10436215;28;2985;-65
2024/01/23 07:35:25;;;;;;;;;;;;;;;4.44;100.00;96712.41;10437618;28;2989;-65
2024/01/23 07:40:28;;;;;;;;;;;;;;;4.34;100.00;96709.38;10433851;28;3053;-66
2024/01/23 07:45:30;;;;;;;;;;;;;;;4.29;100.00;96733.16;10437755;28;3032;-62
2024/01/23 07:50:33;;;;;;;;;;;;;;;4.19;100.00;96738.91;10418566;28;2997;-64
2024/01/23 07:55:35;;;;;;;;;;;;;;;4.09;100.00;96751.03;10441267;28;3009;-64
2024/01/23 08:00:38;;;;;;;;;;;;;;;4.10;100.00;96760.63;10440323;28;3174;-65
2024/01/23 08:05:41;;;;;;;;;;;;;;;4.00;100.00;96775.19;10436562;28;2945;-66
2024/01/23 08:10:44;;;;;;;;;;;;;;;3.97;100.00;96791.56;10434818;28;3070;-64
2024/01/23 08:15:46;;;;;;;;;;;;;;;3.92;100.00;96779.91;10419180;28;2919;-64
2024/01/23 08:20:49;;;;;;;;;;;;;;;3.80;100.00;96777.88;10412520;28;3037;-65
2024/01/23 08:25:51;;;;;;;;;;;;;;;3.64;100.00;96794.25;10434461;28;3076;-67
2024/01/23 08:30:54;;;;;;;;;;;;;;;3.48;100.00;96802.63;10435583;28;2981;-64
2024/01/23 08:35:56;;;;;;;;;;;;;;;3.38;100.00;96810.19;10436235;28;3037;-64
2024/01/23 08:40:59;;;;;;;;;;;;;;;3.29;100.00;96828.16;10408786;28;3163;-64
2024/01/23 08:46:02;;;;;;;;;;;;;;;3.23;100.00;96827.13;10438305;28;2845;-64
2024/01/23 08:51:05;;;;;;;;;;;;;;;3.35;100.00;96839.81;10444681;28;2852;-68
2024/01/23 08:56:08;;;;;;;;;;;;;;;3.38;100.00;96850.06;10442710;28;2913;-64
2024/01/23 09:01:11;;;;;;;;;;;;;;;3.23;100.00;96866.97;10440461;28;2862;-65
2024/01/23 09:06:13;;;;;;;;;;;;;;;3.36;100.00;96866.19;10435856;28;2996;-65
2024/01/23 09:11:16;;;;;;;;;;;;;;;3.40;100.00;96882.56;10436358;28;2889;-66
2024/01/23 09:16:19;;;;;;;;;;;;;;;3.31;100.00;96879.28;10430310;28;2806;-66
2024/01/23 09:21:22;;;;;;;;;;;;;;;3.17;100.00;96893.53;10418067;28;2828;-64
2024/01/23 09:26:25;;;;;;;;;;;;;;;3.00;100.00;96901.03;10431524;28;2843;-65
2024/01/23 09:31:27;;;;;;;;;;;;;;;3.05;100.00;96924.34;10434624;28;2932;-64
2024/01/23 09:36:30;;;;;;;;;;;;;;;2.98;100.00;96916.34;10437423;28;3167;-65
2024/01/23 09:41:32;;;;;;;;;;;;;;;2.91;100.00;96918.16;10443194;28;2917;-64
2024/01/23 09:46:35;;;;;;;;;;;;;;;2.88;100.00;96929.19;10444369;28;2856;-64
2024/01/23 09:51:37;;;;;;;;;;;;;;;3.01;100.00;96937.22;10446715;28;2845;-65
2024/01/23 09:56:40;;;;;;;;;;;;;;;3.20;100.00;96936.47;10445203;28;2893;-64
2024/01/23 10:01:43;;;;;;;;;;;;;;;3.38;100.00;96925.31;10427710;28;2959;-66
2024/01/23 10:06:46;;;;;;;;;;;;;;;3.53;100.00;96930.44;10438333;28;2881;-66
2024/01/23 10:11:48;;;;;;;;;;;;;;;3.82;100.00;96923.97;10443984;28;2924;-65
2024/01/23 10:16:51;;;;;;;;;;;;;;;4.27;100.00;96938.31;10442385;28;3009;-64
2024/01/23 10:21:53;;;;;;;;;;;;;;;4.82;100.00;96940.69;10444652;28;2869;-65
2024/01/23 10:26:56;;;;;;;;;;;;;;;4.91;100.00;96926.13;10430987;28;3037;-65
2024/01/23 10:31:59;;;;;;;;;;;;;;;5.17;100.00;96932.41;10433603;28;2885;-65
2024/01/23 10:37:02;;;;;;;;;;;;;;;5.10;100.00;96929.75;10436836;28;2847;-65
2024/01/23 10:42:04;;;;;;;;;;;;;;;5.00;100.00;96951.50;10441865;28;2910;-64
2024/01/23 10:47:07;;;;;;;;;;;;;;;5.03;100.00;96950.28;10439835;28;2867;-64
2024/01/23 10:52:11;;;;;;;;;;;;;;;4.98;100.00;96939.44;10441124;28;2893;-70
2024/01/23 10:57:13;;;;;;;;;;;;;;;5.31;100.00;96955.31;10439655;28;2881;-67
2024/01/23 11:02:15;;;;;;;;;;;;;;;5.58;100.00;96940.00;10438643;28;2950;-64
2024/01/23 11:07:18;;;;;;;;;;;;;;;6.06;100.00;96939.53;10434560;28;2922;-63
2024/01/23 11:12:21;;;;;;;;;;;;;;;6.23;100.00;96933.47;10437808;28;2869;-65
2024/01/23 11:17:23;;;;;;;;;;;;;;;6.19;100.00;96939.44;10439156;28;2913;-65
2024/01/23 11:22:27;;;;;;;;;;;;;;;6.35;100.00;96922.84;10440056;28;2877;-64
2024/01/23 11:27:30;;;;;;;;;;;;;;;6.52;100.00;96912.44;10439111;28;3004;-69
2024/01/23 11:32:33;;;;;;;;;;;;;;;6.53;100.00;96905.25;10439320;28;2907;-65
2024/01/23 11:37:36;;;;;;;;;;;;;;;6.41;100.00;96897.13;10436516;28;3072;-64
2024/01/23 11:42:39;;;;;;;;;;;;;;;6.40;100.00;96896.31;10437520;28;2893;-64
2024/01/23 11:47:42;;;;;;;;;;;;;;;6.65;100.00;96884.78;10432505;28;2961;-65
2024/01/23 11:52:44;;;;;;;;;;;;;;;6.77;100.00;96885.69;10436170;28;2845;-65
2024/01/23 11:57:46;;;;;;;;;;;;;;;6.76;100.00;96865.34;10438311;28;2983;-65
2024/01/23 12:02:49;;;;;;;;;;;;;;;6.50;100.00;96875.28;10434659;28;2997;-64
2024/01/23 12:07:52;;;;;;;;;;;;;;;6.26;100.00;96877.97;10434915;28;2876;-64
2024/01/23 12:12:54;;;;;;;;;;;;;;;6.26;100.00;96880.66;10436166;28;3309;-64
2024/01/23 12:17:57;;;;;;;;;;;;;;;6.45;100.00;96883.13;10431727;28;2957;-65
2024/01/23 12:22:59;;;;;;;;;;;;;;;6.56;100.00;96867.41;10435914;28;2937;-64
2024/01/23 12:28:02;;;;;;;;;;;;;;;6.63;100.00;96884.19;10432238;28;3001;-65
2024/01/23 12:33:04;;;;;;;;;;;;;;;6.83;100.00;96873.28;10435941;28;2898;-65
2024/01/23 12:38:07;;;;;;;;;;;;;;;6.76;100.00;96886.72;10435969;28;2997;-66
2024/01/23 12:43:10;;;;;;;;;;;;;;;6.71;100.00;96884.72;10436286;28;3011;-66
2024/01/23 12:48:12;;;;;;;;;;;;;;;6.91;100.00;96887.16;10435977;28;3286;-65
2024/01/23 12:53:15;;;;;;;;;;;;;;;7.13;100.00;96884.06;10431635;28;2981;-67
2024/01/23 12:58:25;;;;;;;;;;;;;;;7.13;100.00;96894.75;10432677;28;2940;-67
2024/01/23 13:03:28;;;;;;;;;;;;;;;6.96;100.00;96895.34;10426331;28;3247;-66
2024/01/23 13:08:30;;;;;;;;;;;;;;;7.14;100.00;96901.72;10435533;28;2889;-66
2024/01/23 13:13:34;;;;;;;;;;;;;;;7.12;100.00;96901.94;10442680;28;2896;-64
2024/01/23 13:18:36;;;;;;;;;;;;;;;7.12;100.00;96895.75;10435115;28;2897;-65
2024/01/23 13:23:39;;;;;;;;;;;;;;;7.39;100.00;96890.94;10421975;28;2889;-69
2024/01/23 13:28:42;;;;;;;;;;;;;;;7.29;100.00;96884.25;10442720;28;2892;-65
2024/01/23 13:33:45;;;;;;;;;;;;;;;7.13;100.00;96878.72;10437887;28;2879;-67
2024/01/23 13:38:48;;;;;;;;;;;;;;;7.27;100.00;96890.88;10434668;28;3344;-68
2024/01/23 13:43:57;;;;;;;;;;;;;;;7.15;100.00;96914.88;10439156;28;2852;-64
2024/01/23 13:48:59;;;;;;;;;;;;;;;7.05;100.00;96910.03;10438340;28;2850;-70
2024/01/23 13:54:03;;;;;;;;;;;;;;;7.04;100.00;96904.91;10436199;28;2865;-71
2024/01/23 13:59:05;;;;;;;;;;;;;;;7.00;100.00;96903.75;10440033;28;2909;-71
2024/01/23 14:04:08;;;;;;;;;;;;;;;7.00;100.00;96915.25;10437014;28;2850;-73
2024/01/23 14:09:12;;;;;;;;;;;;;;;6.97;100.00;96902.31;10437221;28;2947;-68
2024/01/23 14:14:15;;;;;;;;;;;;;;;6.87;100.00;96909.22;10435736;28;2889;-77
2024/01/23 14:19:17;;;;;;;;;;;;;;;6.80;100.00;96921.81;10436837;28;2810;-65
2024/01/23 14:24:20;;;;;;;;;;;;;;;6.36;100.00;96913.84;10436314;28;2977;-73
2024/01/23 14:29:23;;;;;;;;;;;;;;;6.07;100.00;96938.50;10440518;28;2885;-74
2024/01/23 14:34:26;;;;;;;;;;;;;;;6.08;100.00;96930.28;10436364;28;2970;-65
2024/01/23 14:39:28;;;;;;;;;;;;;;;6.14;100.00;96925.91;10438037;28;2900;-70
2024/01/23 14:44:31;;;;;;;;;;;;;;;6.29;100.00;96936.28;10435547;28;2897;-75
2024/01/23 14:49:34;;;;;;;;;;;;;;;6.28;100.00;96951.47;10438437;28;2901;-70
2024/01/23 14:54:37;;;;;;;;;;;;;;;6.20;100.00;96933.06;10438138;28;2845;-66
2024/01/23 14:59:39;;;;;;;;;;;;;;;6.20;100.00;96931.22;10435533;28;3248;-68
2024/01/23 15:04:42;;;;;;;;;;;;;;;6.10;100.00;96932.72;10395936;28;1042416;-70
2024/01/23 15:09:45;;;;;;;;;;;;;;;6.07;100.00;96955.34;10433617;28;2849;-68
2024/01/23 15:14:47;;;;;;;;;;;;;;;5.98;100.00;96956.63;10434317;28;2848;-70
2024/01/23 15:19:50;;;;;;;;;;;;;;;6.02;100.00;96962.34;10436603;28;2802;-72
2024/01/23 15:24:53;;;;;;;;;;;;;;;6.01;100.00;96968.72;10435921;28;2961;-71
2024/01/23 15:29:55;;;;;;;;;;;;;;;5.96;100.00;96986.19;10433167;28;2996;-66
2024/01/23 15:34:58;;;;;;;;;;;;;;;5.80;100.00;96993.88;10430665;28;2940;-65
2024/01/23 15:40:02;;;;;;;;;;;;;;;5.72;100.00;96994.91;10433012;28;2930;-64
2024/01/23 15:45:05;;;;;;;;;;;;;;;5.73;100.00;96985.91;10434088;28;2851;-64
2024/01/23 15:50:09;;;;;;;;;;;;;;;5.73;100.00;96980.56;10437467;28;2869;-67
2024/01/23 15:55:16;;;;;;;;;;;;;;;5.66;100.00;96977.09;10433946;28;2885;-66
2024/01/23 16:00:18;;;;;;;;;;;;;;;5.59;100.00;96992.31;10436941;28;2861;-64
2024/01/23 16:05:21;;;;;;;;;;;;;;;5.54;100.00;96989.47;10435284;28;2858;-64
2024/01/23 16:10:23;;;;;;;;;;;;;;;5.61;100.00;96998.28;10435089;28;3040;-65
2024/01/23 16:15:27;;;;;;;;;;;;;;;5.60;100.00;97004.63;10428713;28;2873;-68
2024/01/23 16:20:30;;;;;;;;;;;;;;;5.61;100.00;97007.09;10433014;28;2864;-64
2024/01/23 16:25:33;;;;;;;;;;;;;;;5.52;100.00;97015.53;10437915;28;2854;-67
2024/01/23 16:30:35;;;;;;;;;;;;;;;5.52;100.00;97016.34;10439341;28;2861;-65
2024/01/23 16:35:40;;;;;;;;;;;;;;;5.51;100.00;97029.91;10435813;28;2897;-65
2024/01/23 16:40:47;;;;;;;;;;;;;;;5.49;100.00;97026.63;10430645;28;3108;-67
2024/01/23 16:45:50;;;;;;;;;;;;;;;5.43;100.00;97034.44;10429920;28;2986;-65
2024/01/23 16:50:53;;;;;;;;;;;;;;;5.38;100.00;97026.25;10431902;28;2837;-65
2024/01/23 16:55:55;;;;;;;;;;;;;;;5.45;100.00;97020.88;10434820;28;3297;-64
2024/01/23 17:00:58;;;;;;;;;;;;;;;5.42;100.00;97022.13;10433367;28;2982;-66
2024/01/23 17:06:03;;;;;;;;;;;;;;;5.37;100.00;97019.28;10433189;28;2942;-65
2024/01/23 17:11:06;;;;;;;;;;;;;;;5.41;100.00;97012.50;10434804;28;3108;-67
2024/01/23 17:16:08;;;;;;;;;;;;;;;5.37;100.00;97011.28;10434312;28;2877;-65
2024/01/23 17:21:11;;;;;;;;;;;;;;;5.38;100.00;97004.09;10434570;28;2872;-66
2024/01/23 17:26:17;;;;;;;;;;;;;;;5.38;100.00;97006.75;10430436;28;2905;-65
2024/01/23 17:31:19;;;;;;;;;;;;;;;5.36;100.00;96984.81;10440697;28;2870;-65
2024/01/23 17:36:23;;;;;;;;;;;;;;;5.37;100.00;96997.13;10439131;28;3153;-66
2024/01/23 17:41:26;;;;;;;;;;;;;;;5.31;100.00;97008.63;10430854;28;2818;-64
2024/01/23 17:46:28;;;;;;;;;;;;;;;5.26;100.00;96989.78;10431815;28;2892;-67
2024/01/23 17:51:31;;;;;;;;;;;;;;;5.20;100.00;96991.44;10440404;28;2842;-64
2024/01/23 17:56:35;;;;;;;;;;;;;;;5.28;100.00;96983.22;10438450;28;2917;-65
2024/01/23 18:01:38;;;;;;;;;;;;;;;5.26;100.00;96995.91;10445253;28;2870;-65
2024/01/23 18:06:40;;;;;;;;;;;;;;;5.32;100.00;96973.75;10436374;28;2889;-69
2024/01/23 18:11:45;;;;;;;;;;;;;;;5.28;100.00;96977.88;10436413;28;2830;-64
2024/01/23 18:16:48;;;;;;;;;;;;;;;5.35;100.00;96976.00;10443074;28;2870;-63
2024/01/23 18:21:51;;;;;;;;;;;;;;;5.37;100.00;96979.28;10436451;28;3643;-65
2024/01/23 18:26:53;;;;;;;;;;;;;;;5.43;100.00;96978.44;10435469;28;2937;-65
2024/01/23 18:31:55;;;;;;;;;;;;;;;5.49;100.00;96949.28;10443153;28;2886;-66
2024/01/23 18:36:58;;;;;;;;;;;;;;;5.52;100.00;96957.66;10437505;28;3271;-64
2024/01/23 18:42:01;;;;;;;;;;;;;;;5.61;100.00;96927.06;10432159;28;2922;-65
2024/01/23 18:47:03;;;;;;;;;;;;;;;5.63;100.00;96941.00;10440152;28;2834;-68
2024/01/23 18:52:07;;;;;;;;;;;;;;;5.67;100.00;96934.22;10438891;28;2911;-64
2024/01/23 18:57:09;;;;;;;;;;;;;;;5.69;100.00;96942.81;10434049;28;2913;-65
2024/01/23 19:02:12;;;;;;;;;;;;;;;5.77;100.00;96930.25;10431625;28;2912;-65
2024/01/23 19:07:15;;;;;;;;;;;;;;;5.82;100.00;96915.22;10435661;28;3143;-68
2024/01/23 19:12:18;;;;;;;;;;;;;;;5.83;100.00;96905.38;10438634;28;2805;-71
2024/01/23 19:17:21;;;;;;;;;;;;;;;5.82;100.00;96899.22;10437577;28;2861;-67
2024/01/23 19:22:23;;;;;;;;;;;;;;;5.79;100.00;96889.00;10445118;28;2818;-67
2024/01/23 19:27:26;;;;;;;;;;;;;;;5.77;100.00;96888.38;10432927;28;2871;-68
2024/01/23 19:32:29;;;;;;;;;;;;;;;5.88;100.00;96877.00;10421492;28;2893;-67
2024/01/23 19:37:32;;;;;;;;;;;;;;;5.95;100.00;96877.81;10436344;28;3394;-65
2024/01/23 19:42:34;;;;;;;;;;;;;;;5.92;100.00;96867.56;10437563;28;2837;-64
2024/01/23 19:47:37;;;;;;;;;;;;;;;5.92;100.00;96867.56;10438580;28;2862;-67
2024/01/23 19:52:40;;;;;;;;;;;;;;;6.06;100.00;96862.13;10437308;28;3022;-67
2024/01/23 19:57:42;;;;;;;;;;;;;;;6.09;100.00;96851.00;10434933;28;2999;-67
2024/01/23 20:02:45;;;;;;;;;;;;;;;6.09;100.00;96856.34;10444810;28;2278;-66
2024/01/23 20:07:47;;;;;;;;;;;;;;;6.19;100.00;96841.47;10449322;28;1463;-67
2024/01/23 20:12:50;;;;;;;;;;;;;;;6.20;100.00;96851.09;10452891;28;1967;-66
2024/01/23 20:17:52;;;;;;;;;;;;;;;6.22;100.00;96848.22;10447863;28;2292;-66
2024/01/23 20:22:55;;;;;;;;;;;;;;;6.20;100.00;96866.31;10448121;28;1879;-66
2024/01/23 20:27:57;;;;;;;;;;;;;;;6.11;100.00;96856.97;10448605;28;1515;-66
2024/01/23 20:33:00;;;;;;;;;;;;;;;6.13;100.00;96837.00;10455230;28;1945;-67
2024/01/23 20:38:03;;;;;;;;;;;;;;;6.07;100.00;96847.75;10452091;28;2043;-66
2024/01/23 20:43:06;;;;;;;;;;;;;;;5.79;100.00;96853.47;10443169;28;1506;-65
2024/01/23 20:48:09;;;;;;;;;;;;;;;5.49;100.00;96842.63;10449736;28;1952;-66
2024/01/23 20:53:12;;;;;;;;;;;;;;;5.39;100.00;96845.72;10454708;28;1915;-65
2024/01/23 20:58:14;;;;;;;;;;;;;;;5.25;100.00;96845.00;10450439;28;1591;-66
2024/01/23 21:03:17;;;;;;;;;;;;;;;5.15;100.00;96833.97;10450017;28;1726;-65
2024/01/23 21:08:19;;;;;;;;;;;;;;;5.22;100.00;96845.44;10444657;28;1521;-67
2024/01/23 21:13:22;;;;;;;;;;;;;;;5.22;100.00;96856.09;10450720;28;2382;-68
2024/01/23 21:18:25;;;;;;;;;;;;;;;5.27;100.00;96842.13;10446817;28;1726;-69
2024/01/23 21:23:28;;;;;;;;;;;;;;;5.23;100.00;96840.91;10450110;28;1435;-65
2024/01/23 21:28:30;;;;;;;;;;;;;;;5.11;100.00;96838.09;10452301;28;1247;-65
2024/01/23 21:33:33;;;;;;;;;;;;;;;5.06;100.00;96845.91;10462629;28;1984;-67
2024/01/23 21:38:35;;;;;;;;;;;;;;;4.95;100.00;96827.94;10457536;28;3018;-70
2024/01/23 21:43:38;;;;;;;;;;;;;;;4.85;100.00;96821.22;10443471;28;2974;-67
2024/01/23 21:48:40;;;;;;;;;;;;;;;4.85;100.00;96815.06;10444025;28;2868;-67
2024/01/23 21:53:43;;;;;;;;;;;;;;;4.82;100.00;96820.81;10442616;28;2853;-69
2024/01/23 21:58:45;;;;;;;;;;;;;;;4.80;100.00;96817.53;10438450;28;2898;-68
2024/01/23 22:03:48;;;;;;;;;;;;;;;4.78;100.00;96799.13;10444521;28;2905;-66
2024/01/23 22:08:52;;;;;;;;;;;;;;;4.77;100.00;96783.31;10445838;28;2850;-65
2024/01/23 22:13:54;;;;;;;;;;;;;;;4.78;100.00;96775.16;10446254;28;2911;-66
2024/01/23 22:18:57;;;;;;;;;;;;;;;4.82;100.00;96797.66;10442261;28;2964;-66
2024/01/23 22:24:13;;;;;;;;;;;;;;;4.76;100.00;96798.50;10443188;28;2873;-66
2024/01/23 22:29:15;;;;;;;;;;;;;;;4.78;100.00;96791.13;10444581;28;2873;-67
2024/01/23 22:34:18;;;;;;;;;;;;;;;4.69;100.00;96771.06;10439465;28;2829;-66
2024/01/23 22:39:20;;;;;;;;;;;;;;;4.65;100.00;96764.56;10439613;28;2953;-67
2024/01/23 22:44:23;;;;;;;;;;;;;;;4.64;100.00;96733.59;10422765;28;2943;-67
2024/01/23 22:49:25;;;;;;;;;;;;;;;4.64;100.00;96693.66;10438180;28;2940;-68
2024/01/23 22:54:28;;;;;;;;;;;;;;;4.65;100.00;96690.00;10436255;28;3345;-65
2024/01/23 22:59:31;;;;;;;;;;;;;;;4.69;100.00;96680.53;10444825;28;2822;-66
2024/01/23 23:04:33;;;;;;;;;;;;;;;4.72;100.00;96685.44;10435716;28;2813;-66
2024/01/23 23:09:36;;;;;;;;;;;;;;;4.81;100.00;96684.13;10440541;28;3167;-66
2024/01/23 23:14:39;;;;;;;;;;;;;;;4.91;100.00;96669.53;10440451;28;2934;-65
2024/01/23 23:19:43;;;;;;;;;;;;;;;4.94;100.00;96658.44;10436378;28;3367;-64
2024/01/23 23:24:46;;;;;;;;;;;;;;;4.97;100.00;96650.03;10422850;28;2864;-65
2024/01/23 23:29:48;;;;;;;;;;;;;;;5.06;100.00;96643.38;10447895;28;2880;-64
2024/01/23 23:34:50;;;;;;;;;;;;;;;5.13;100.00;96630.81;10439856;28;3263;-65
2024/01/23 23:39:53;;;;;;;;;;;;;;;5.21;100.00;96630.53;10443513;28;2997;-65
2024/01/23 23:44:55;;;;;;;;;;;;;;;5.29;100.00;96616.13;10439654;28;2897;-67
2024/01/23 23:49:58;;;;;;;;;;;;;;;5.34;100.00;96601.13;10438823;28;2869;-67
2024/01/23 23:55:00;;;;;;;;;;;;;;;5.38;100.00;96577.47;10437866;28;2805;-65
